createdAt,value
2018-05-09T00:00:08.365Z,3.25
2018-05-09T00:00:20.898Z,3.25
2018-05-09T00:00:33.340Z,3.25
2018-05-09T00:00:45.795Z,3.25
2018-05-09T00:00:58.220Z,3.25
2018-05-09T00:01:10.746Z,3.25
2018-05-09T00:01:23.176Z,3.25
2018-05-09T00:01:35.592Z,3.25
2018-05-09T00:01:48.003Z,3.25
2018-05-09T00:02:00.423Z,3.25
2018-05-09T00:02:12.828Z,3.25
2018-05-09T00:02:25.233Z,3.25
2018-05-09T00:02:37.647Z,3.25
2018-05-09T00:02:50.070Z,3.25
2018-05-09T00:03:02.489Z,3.25
2018-05-09T00:03:15.011Z,3.25
2018-05-09T00:03:27.412Z,3.25
2018-05-09T00:03:39.817Z,3.25
2018-05-09T00:03:52.224Z,3.25
2018-05-09T00:04:04.639Z,3.25
2018-05-09T00:04:17.053Z,3.25
2018-05-09T00:04:29.483Z,3.25
2018-05-09T00:04:41.899Z,3.25
2018-05-09T00:04:54.321Z,3.25
2018-05-09T00:05:06.729Z,3.25
2018-05-09T00:05:19.138Z,3.25
2018-05-09T00:05:31.679Z,3.25
2018-05-09T00:05:44.126Z,3.25
2018-05-09T00:05:56.537Z,3.25
2018-05-09T00:06:08.962Z,3.25
2018-05-09T00:06:21.393Z,3.25
2018-05-09T00:06:33.827Z,3.25
2018-05-09T00:06:46.251Z,3.25
2018-05-09T00:06:58.689Z,3.7
2018-05-09T00:07:11.100Z,3.7
2018-05-09T00:07:23.588Z,3.7
2018-05-09T00:07:35.991Z,3.7
2018-05-09T00:07:48.403Z,3.7
2018-05-09T00:08:00.827Z,3.7
2018-05-09T00:08:13.240Z,3.7
2018-05-09T00:08:25.667Z,3.7
2018-05-09T00:08:38.071Z,3.7
2018-05-09T00:08:50.478Z,3.7
2018-05-09T00:09:02.955Z,3.7
2018-05-09T00:09:15.382Z,3.7
2018-05-09T00:09:27.803Z,3.7
2018-05-09T00:09:40.208Z,3.7
2018-05-09T00:09:52.619Z,3.7
2018-05-09T00:10:05.040Z,3.7
2018-05-09T00:10:17.465Z,3.7
2018-05-09T00:10:29.858Z,3.7
2018-05-09T00:10:42.257Z,3.7
2018-05-09T00:10:54.667Z,3.7
2018-05-09T00:11:07.082Z,3.7
2018-05-09T00:11:19.490Z,3.7
2018-05-09T00:11:32.157Z,3.7
2018-05-09T00:11:44.566Z,3.7
2018-05-09T00:11:57.447Z,3.7
2018-05-09T00:12:10.327Z,3.7
2018-05-09T00:12:22.733Z,3.7
2018-05-09T00:12:35.163Z,3.7
2018-05-09T00:12:47.572Z,3.7
2018-05-09T00:12:59.981Z,3.7
2018-05-09T00:13:12.421Z,3.7
2018-05-09T00:13:24.919Z,3.7
2018-05-09T00:13:37.328Z,3.7
2018-05-09T00:13:49.769Z,3.7
2018-05-09T00:14:02.191Z,3.7
2018-05-09T00:14:14.663Z,3.7
2018-05-09T00:14:27.078Z,3.7
2018-05-09T00:14:39.479Z,3.7
2018-05-09T00:14:51.890Z,3.7
2018-05-09T00:15:04.308Z,3.7
2018-05-09T00:15:16.719Z,3.7
2018-05-09T00:15:29.139Z,3.7
2018-05-09T00:15:41.623Z,3.7
2018-05-09T00:15:54.081Z,3.7
2018-05-09T00:16:06.513Z,3.7
2018-05-09T00:16:18.923Z,3.7
2018-05-09T00:16:31.410Z,3.7
2018-05-09T00:16:43.809Z,3.7
2018-05-09T00:16:56.234Z,3.7
2018-05-09T00:17:08.662Z,4.02
2018-05-09T00:17:21.081Z,4.02
2018-05-09T00:17:33.496Z,4.02
2018-05-09T00:17:45.901Z,4.02
2018-05-09T00:17:58.327Z,4.02
2018-05-09T00:18:10.733Z,4.02
2018-05-09T00:18:23.224Z,4.02
2018-05-09T00:18:35.654Z,4.02
2018-05-09T00:18:48.091Z,4.02
2018-05-09T00:19:00.511Z,4.02
2018-05-09T00:19:12.931Z,4.02
2018-05-09T00:19:25.359Z,4.02
2018-05-09T00:19:37.763Z,4.02
2018-05-09T00:19:50.175Z,4.02
2018-05-09T00:20:02.578Z,4.02
2018-05-09T00:20:14.991Z,4.02
2018-05-09T00:20:27.397Z,4.02
2018-05-09T00:20:39.809Z,4.02
2018-05-09T00:20:52.216Z,4.02
2018-05-09T00:21:04.631Z,4.02
2018-05-09T00:21:17.042Z,4.02
2018-05-09T00:21:29.467Z,4.02
2018-05-09T00:21:41.886Z,4.02
2018-05-09T00:21:54.334Z,4.02
2018-05-09T00:22:06.749Z,4.02
2018-05-09T00:22:19.155Z,4.02
2018-05-09T00:22:31.559Z,4.02
2018-05-09T00:22:43.963Z,4.02
2018-05-09T00:22:56.371Z,4.02
2018-05-09T00:23:08.797Z,4.02
2018-05-09T00:23:21.195Z,4.02
2018-05-09T00:23:33.681Z,4.02
2018-05-09T00:23:46.112Z,4.02
2018-05-09T00:23:58.693Z,4.02
2018-05-09T00:24:11.108Z,4.02
2018-05-09T00:24:23.532Z,4.02
2018-05-09T00:24:35.970Z,4.02
2018-05-09T00:24:48.539Z,4.02
2018-05-09T00:25:00.972Z,4.02
2018-05-09T00:25:13.445Z,4.02
2018-05-09T00:25:25.844Z,4.02
2018-05-09T00:25:38.257Z,4.02
2018-05-09T00:25:50.679Z,4.02
2018-05-09T00:26:03.093Z,4.02
2018-05-09T00:26:15.517Z,4.02
2018-05-09T00:26:27.942Z,4.02
2018-05-09T00:26:40.358Z,4.02
2018-05-09T00:26:52.851Z,4.02
2018-05-09T00:27:05.268Z,5.02
2018-05-09T00:27:17.680Z,5.02
2018-05-09T00:27:30.174Z,5.02
2018-05-09T00:27:42.593Z,5.02
2018-05-09T00:27:55.088Z,5.02
2018-05-09T00:28:07.683Z,5.02
2018-05-09T00:28:20.104Z,5.02
2018-05-09T00:28:32.537Z,5.02
2018-05-09T00:28:44.953Z,5.02
2018-05-09T00:28:57.379Z,5.02
2018-05-09T00:29:09.792Z,5.02
2018-05-09T00:29:22.384Z,5.02
2018-05-09T00:29:34.805Z,5.02
2018-05-09T00:29:47.219Z,5.02
2018-05-09T00:29:59.716Z,5.02
2018-05-09T00:30:12.132Z,5.02
2018-05-09T00:30:24.559Z,5.02
2018-05-09T00:30:36.956Z,5.02
2018-05-09T00:30:49.369Z,5.02
2018-05-09T00:31:01.879Z,5.02
2018-05-09T00:31:14.286Z,5.02
2018-05-09T00:31:26.700Z,5.02
2018-05-09T00:31:39.121Z,5.02
2018-05-09T00:31:51.540Z,5.02
2018-05-09T00:32:03.959Z,5.02
2018-05-09T00:32:16.360Z,5.02
2018-05-09T00:32:28.779Z,5.02
2018-05-09T00:32:41.195Z,5.02
2018-05-09T00:32:53.619Z,5.02
2018-05-09T00:33:06.022Z,5.02
2018-05-09T00:33:18.440Z,5.02
2018-05-09T00:33:30.875Z,5.02
2018-05-09T00:33:43.277Z,5.02
2018-05-09T00:33:55.683Z,5.02
2018-05-09T00:34:08.110Z,5.02
2018-05-09T00:34:20.746Z,5.02
2018-05-09T00:34:33.208Z,5.02
2018-05-09T00:34:45.695Z,5.02
2018-05-09T00:34:58.089Z,5.02
2018-05-09T00:35:10.493Z,5.02
2018-05-09T00:35:22.924Z,5.02
2018-05-09T00:35:35.326Z,5.02
2018-05-09T00:35:47.731Z,5.02
2018-05-09T00:36:00.158Z,5.02
2018-05-09T00:36:12.574Z,5.02
2018-05-09T00:36:24.980Z,5.02
2018-05-09T00:36:37.406Z,5.02
2018-05-09T00:36:49.833Z,5.02
2018-05-09T00:37:02.233Z,5.65
2018-05-09T00:37:14.727Z,5.65
2018-05-09T00:37:27.225Z,5.65
2018-05-09T00:37:39.639Z,5.65
2018-05-09T00:37:52.130Z,5.65
2018-05-09T00:38:04.545Z,5.65
2018-05-09T00:38:17.113Z,5.65
2018-05-09T00:38:29.606Z,5.65
2018-05-09T00:38:42.017Z,5.65
2018-05-09T00:38:54.434Z,5.65
2018-05-09T00:39:06.849Z,5.65
2018-05-09T00:39:19.258Z,5.65
2018-05-09T00:39:31.880Z,5.65
2018-05-09T00:39:44.305Z,5.65
2018-05-09T00:39:56.710Z,5.65
2018-05-09T00:40:09.266Z,5.65
2018-05-09T00:40:21.666Z,5.65
2018-05-09T00:40:34.065Z,5.65
2018-05-09T00:40:46.474Z,5.65
2018-05-09T00:40:58.883Z,5.65
2018-05-09T00:41:11.439Z,5.65
2018-05-09T00:41:23.855Z,5.65
2018-05-09T00:41:36.285Z,5.65
2018-05-09T00:41:49.468Z,5.65
2018-05-09T00:42:02.073Z,5.65
2018-05-09T00:42:14.499Z,5.65
2018-05-09T00:42:26.923Z,5.65
2018-05-09T00:42:39.398Z,5.65
2018-05-09T00:42:51.850Z,5.65
2018-05-09T00:43:04.256Z,5.65
2018-05-09T00:43:16.671Z,5.65
2018-05-09T00:43:29.096Z,5.65
2018-05-09T00:43:41.550Z,5.65
2018-05-09T00:43:53.952Z,5.65
2018-05-09T00:44:06.348Z,5.65
2018-05-09T00:44:18.869Z,5.65
2018-05-09T00:44:31.297Z,5.65
2018-05-09T00:44:43.718Z,5.65
2018-05-09T00:44:56.138Z,5.65
2018-05-09T00:45:08.556Z,5.65
2018-05-09T00:45:21.046Z,5.65
2018-05-09T00:45:33.463Z,5.65
2018-05-09T00:45:45.867Z,5.65
2018-05-09T00:45:58.503Z,5.65
2018-05-09T00:46:10.917Z,5.65
2018-05-09T00:46:23.333Z,5.65
2018-05-09T00:46:35.846Z,5.65
2018-05-09T00:46:48.249Z,5.65
2018-05-09T00:47:00.676Z,4.8
2018-05-09T00:47:13.095Z,4.8
2018-05-09T00:47:25.544Z,4.8
2018-05-09T00:47:37.945Z,4.8
2018-05-09T00:47:50.365Z,4.8
2018-05-09T00:48:02.770Z,4.8
2018-05-09T00:48:15.304Z,4.8
2018-05-09T00:48:27.714Z,4.8
2018-05-09T00:48:40.118Z,4.8
2018-05-09T00:48:52.712Z,4.8
2018-05-09T00:49:05.166Z,4.8
2018-05-09T00:49:17.570Z,4.8
2018-05-09T00:49:29.995Z,4.8
2018-05-09T00:49:42.407Z,4.8
2018-05-09T00:49:54.818Z,4.8
2018-05-09T00:50:07.684Z,4.8
2018-05-09T00:50:20.565Z,4.8
2018-05-09T00:50:32.977Z,4.8
2018-05-09T00:50:45.380Z,4.8
2018-05-09T00:50:57.789Z,4.8
2018-05-09T00:51:10.213Z,4.8
2018-05-09T00:51:22.646Z,4.8
2018-05-09T00:51:35.099Z,4.8
2018-05-09T00:51:47.517Z,4.8
2018-05-09T00:51:59.916Z,4.8
2018-05-09T00:52:12.331Z,4.8
2018-05-09T00:52:24.745Z,4.8
2018-05-09T00:52:37.195Z,4.8
2018-05-09T00:52:49.616Z,4.8
2018-05-09T00:53:02.033Z,4.8
2018-05-09T00:53:14.448Z,4.8
2018-05-09T00:53:26.856Z,4.8
2018-05-09T00:53:39.260Z,4.8
2018-05-09T00:53:51.701Z,4.8
2018-05-09T00:54:04.113Z,4.8
2018-05-09T00:54:16.512Z,4.8
2018-05-09T00:54:29.011Z,4.8
2018-05-09T00:54:41.415Z,4.8
2018-05-09T00:54:53.826Z,4.8
2018-05-09T00:55:06.247Z,4.8
2018-05-09T00:55:18.712Z,4.8
2018-05-09T00:55:31.300Z,4.8
2018-05-09T00:55:43.709Z,4.8
2018-05-09T00:55:56.118Z,4.8
2018-05-09T00:56:08.540Z,4.8
2018-05-09T00:56:20.965Z,4.8
2018-05-09T00:56:33.373Z,4.8
2018-05-09T00:56:45.767Z,4.8
2018-05-09T00:56:58.196Z,4.8
2018-05-09T00:57:10.625Z,9
2018-05-09T00:57:23.026Z,9
2018-05-09T00:57:35.442Z,9
2018-05-09T00:57:47.858Z,9
2018-05-09T00:58:00.261Z,9
2018-05-09T00:58:12.671Z,9
2018-05-09T00:58:25.082Z,9
2018-05-09T00:58:37.493Z,9
2018-05-09T00:58:49.977Z,9
2018-05-09T00:59:02.390Z,9
2018-05-09T00:59:14.808Z,9
2018-05-09T00:59:27.270Z,9
2018-05-09T00:59:39.686Z,9
2018-05-09T00:59:52.178Z,9
2018-05-09T01:00:04.646Z,9
2018-05-09T01:00:17.098Z,9
2018-05-09T01:00:29.568Z,9
2018-05-09T01:00:42.087Z,9
2018-05-09T01:00:54.507Z,9
2018-05-09T01:01:06.966Z,9
2018-05-09T01:01:19.401Z,9
2018-05-09T01:01:31.834Z,9
2018-05-09T01:01:44.271Z,9
2018-05-09T01:01:56.782Z,9
2018-05-09T01:02:09.209Z,9
2018-05-09T01:02:21.623Z,9
2018-05-09T01:02:34.034Z,9
2018-05-09T01:02:46.436Z,9
2018-05-09T01:02:58.868Z,9
2018-05-09T01:03:11.345Z,9
2018-05-09T01:03:23.746Z,9
2018-05-09T01:03:36.166Z,9
2018-05-09T01:03:48.635Z,9
2018-05-09T01:04:01.032Z,9
2018-05-09T01:04:13.458Z,9
2018-05-09T01:04:25.884Z,9
2018-05-09T01:04:38.310Z,9
2018-05-09T01:04:50.761Z,9
2018-05-09T01:05:03.174Z,9
2018-05-09T01:05:15.588Z,9
2018-05-09T01:05:28.036Z,9
2018-05-09T01:05:40.583Z,9
2018-05-09T01:05:53.009Z,9
2018-05-09T01:06:05.417Z,9
2018-05-09T01:06:17.887Z,9
2018-05-09T01:06:30.306Z,9
2018-05-09T01:06:42.717Z,9
2018-05-09T01:06:55.131Z,9
2018-05-09T01:07:07.548Z,7.13
2018-05-09T01:07:19.952Z,7.13
2018-05-09T01:07:32.358Z,7.13
2018-05-09T01:07:44.777Z,7.13
2018-05-09T01:07:57.195Z,7.13
2018-05-09T01:08:09.620Z,7.13
2018-05-09T01:08:22.059Z,7.13
2018-05-09T01:08:34.696Z,7.13
2018-05-09T01:08:47.105Z,7.13
2018-05-09T01:08:59.511Z,7.13
2018-05-09T01:09:11.948Z,7.13
2018-05-09T01:09:24.363Z,7.13
2018-05-09T01:09:36.825Z,7.13
2018-05-09T01:09:49.222Z,7.13
2018-05-09T01:10:01.637Z,7.13
2018-05-09T01:10:14.061Z,7.13
2018-05-09T01:10:26.484Z,7.13
2018-05-09T01:10:39.074Z,7.13
2018-05-09T01:10:51.470Z,7.13
2018-05-09T01:11:03.892Z,7.13
2018-05-09T01:11:16.384Z,7.13
2018-05-09T01:11:28.843Z,7.13
2018-05-09T01:11:41.342Z,7.13
2018-05-09T01:11:53.777Z,7.13
2018-05-09T01:12:06.192Z,7.13
2018-05-09T01:12:18.602Z,7.13
2018-05-09T01:12:31.005Z,7.13
2018-05-09T01:12:43.428Z,7.13
2018-05-09T01:12:55.842Z,7.13
2018-05-09T01:13:08.269Z,7.13
2018-05-09T01:13:20.693Z,7.13
2018-05-09T01:13:33.103Z,7.13
2018-05-09T01:13:45.504Z,7.13
2018-05-09T01:13:57.912Z,7.13
2018-05-09T01:14:10.322Z,7.13
2018-05-09T01:14:22.730Z,7.13
2018-05-09T01:14:35.165Z,7.13
2018-05-09T01:14:47.575Z,7.13
2018-05-09T01:14:59.982Z,7.13
2018-05-09T01:15:12.408Z,7.13
2018-05-09T01:15:24.827Z,7.13
2018-05-09T01:15:37.399Z,7.13
2018-05-09T01:15:49.801Z,7.13
2018-05-09T01:16:02.212Z,7.13
2018-05-09T01:16:14.621Z,7.13
2018-05-09T01:16:27.028Z,7.13
2018-05-09T01:16:39.503Z,7.13
2018-05-09T01:16:51.922Z,7.13
2018-05-09T01:17:04.340Z,8.9
2018-05-09T01:17:16.760Z,8.9
2018-05-09T01:17:29.182Z,8.9
2018-05-09T01:17:41.605Z,8.9
2018-05-09T01:17:54.032Z,8.9
2018-05-09T01:18:06.446Z,8.9
2018-05-09T01:18:18.983Z,8.9
2018-05-09T01:18:31.393Z,8.9
2018-05-09T01:18:43.810Z,8.9
2018-05-09T01:18:56.332Z,8.9
2018-05-09T01:19:08.750Z,8.9
2018-05-09T01:19:21.265Z,8.9
2018-05-09T01:19:33.681Z,8.9
2018-05-09T01:19:46.110Z,8.9
2018-05-09T01:19:58.527Z,8.9
2018-05-09T01:20:10.930Z,8.9
2018-05-09T01:20:23.348Z,8.9
2018-05-09T01:20:35.752Z,8.9
2018-05-09T01:20:48.163Z,8.9
2018-05-09T01:21:00.576Z,8.9
2018-05-09T01:21:12.988Z,8.9
2018-05-09T01:21:25.407Z,8.9
2018-05-09T01:21:37.824Z,8.9
2018-05-09T01:21:50.318Z,8.9
2018-05-09T01:22:02.743Z,8.9
2018-05-09T01:22:15.160Z,8.9
2018-05-09T01:22:27.652Z,8.9
2018-05-09T01:22:40.074Z,8.9
2018-05-09T01:22:52.510Z,8.9
2018-05-09T01:23:04.919Z,8.9
2018-05-09T01:23:17.334Z,8.9
2018-05-09T01:23:29.773Z,8.9
2018-05-09T01:23:42.192Z,8.9
2018-05-09T01:23:54.610Z,8.9
2018-05-09T01:24:07.159Z,8.9
2018-05-09T01:24:19.582Z,8.9
2018-05-09T01:24:32.034Z,8.9
2018-05-09T01:24:44.605Z,8.9
2018-05-09T01:24:57.007Z,8.9
2018-05-09T01:25:09.478Z,8.9
2018-05-09T01:25:21.902Z,8.9
2018-05-09T01:25:34.334Z,8.9
2018-05-09T01:25:46.758Z,8.9
2018-05-09T01:25:59.172Z,8.9
2018-05-09T01:26:11.629Z,8.9
2018-05-09T01:26:24.260Z,8.9
2018-05-09T01:26:36.685Z,8.9
2018-05-09T01:26:49.107Z,8.9
2018-05-09T01:27:01.533Z,8.9
2018-05-09T01:27:14.010Z,7.12
2018-05-09T01:27:26.484Z,7.12
2018-05-09T01:27:38.918Z,7.12
2018-05-09T01:27:51.333Z,7.12
2018-05-09T01:28:03.752Z,7.12
2018-05-09T01:28:16.181Z,7.12
2018-05-09T01:28:28.617Z,7.12
2018-05-09T01:28:41.149Z,7.12
2018-05-09T01:28:53.561Z,7.12
2018-05-09T01:29:06.059Z,7.12
2018-05-09T01:29:18.467Z,7.12
2018-05-09T01:29:30.890Z,7.12
2018-05-09T01:29:43.398Z,7.12
2018-05-09T01:29:55.817Z,7.12
2018-05-09T01:30:08.248Z,7.12
2018-05-09T01:30:20.678Z,7.12
2018-05-09T01:30:33.092Z,7.12
2018-05-09T01:30:45.492Z,7.12
2018-05-09T01:30:57.909Z,7.12
2018-05-09T01:31:10.337Z,7.12
2018-05-09T01:31:22.775Z,7.12
2018-05-09T01:31:35.181Z,7.12
2018-05-09T01:31:47.612Z,7.12
2018-05-09T01:32:00.023Z,7.12
2018-05-09T01:32:12.437Z,7.12
2018-05-09T01:32:24.864Z,7.12
2018-05-09T01:32:37.280Z,7.12
2018-05-09T01:32:49.721Z,7.12
2018-05-09T01:33:02.151Z,7.12
2018-05-09T01:33:14.564Z,7.12
2018-05-09T01:33:27.057Z,7.12
2018-05-09T01:33:39.464Z,7.12
2018-05-09T01:33:51.887Z,7.12
2018-05-09T01:34:04.318Z,7.12
2018-05-09T01:34:16.728Z,7.12
2018-05-09T01:34:29.148Z,7.12
2018-05-09T01:34:41.630Z,7.12
2018-05-09T01:34:54.058Z,7.12
2018-05-09T01:35:06.483Z,7.12
2018-05-09T01:35:18.946Z,7.12
2018-05-09T01:35:31.372Z,7.12
2018-05-09T01:35:43.788Z,7.12
2018-05-09T01:35:56.199Z,7.12
2018-05-09T01:36:08.611Z,7.12
2018-05-09T01:36:21.022Z,7.12
2018-05-09T01:36:33.422Z,7.12
2018-05-09T01:36:45.844Z,7.12
2018-05-09T01:36:58.246Z,7.12
2018-05-09T01:37:10.663Z,5.53
2018-05-09T01:37:23.070Z,5.53
2018-05-09T01:37:35.476Z,5.53
2018-05-09T01:37:47.879Z,5.53
2018-05-09T01:38:00.293Z,5.53
2018-05-09T01:38:12.818Z,5.53
2018-05-09T01:38:25.229Z,5.53
2018-05-09T01:38:37.643Z,5.53
2018-05-09T01:38:50.045Z,5.53
2018-05-09T01:39:02.463Z,5.53
2018-05-09T01:39:14.909Z,5.53
2018-05-09T01:39:27.304Z,5.53
2018-05-09T01:39:39.860Z,5.53
2018-05-09T01:39:52.268Z,5.53
2018-05-09T01:40:04.688Z,5.53
2018-05-09T01:40:17.107Z,5.53
2018-05-09T01:40:29.518Z,5.53
2018-05-09T01:40:41.927Z,5.53
2018-05-09T01:40:54.342Z,5.53
2018-05-09T01:41:06.893Z,5.53
2018-05-09T01:41:19.306Z,5.53
2018-05-09T01:41:31.714Z,5.53
2018-05-09T01:41:44.120Z,5.53
2018-05-09T01:41:56.531Z,5.53
2018-05-09T01:42:08.998Z,5.53
2018-05-09T01:42:21.466Z,5.53
2018-05-09T01:42:33.879Z,5.53
2018-05-09T01:42:46.344Z,5.53
2018-05-09T01:42:58.757Z,5.53
2018-05-09T01:43:11.153Z,5.53
2018-05-09T01:43:23.562Z,5.53
2018-05-09T01:43:36.034Z,5.53
2018-05-09T01:43:48.545Z,5.53
2018-05-09T01:44:00.956Z,5.53
2018-05-09T01:44:13.394Z,5.53
2018-05-09T01:44:25.790Z,5.53
2018-05-09T01:44:38.199Z,5.53
2018-05-09T01:44:50.620Z,5.53
2018-05-09T01:45:03.052Z,5.53
2018-05-09T01:45:15.465Z,5.53
2018-05-09T01:45:27.875Z,5.53
2018-05-09T01:45:40.272Z,5.53
2018-05-09T01:45:53.021Z,5.53
2018-05-09T01:46:05.425Z,5.53
2018-05-09T01:46:17.836Z,5.53
2018-05-09T01:46:30.267Z,5.53
2018-05-09T01:46:42.672Z,5.53
2018-05-09T01:46:55.094Z,5.53
2018-05-09T01:47:07.595Z,6.14
2018-05-09T01:47:19.992Z,6.14
2018-05-09T01:47:32.475Z,6.14
2018-05-09T01:47:44.890Z,6.14
2018-05-09T01:47:57.386Z,6.14
2018-05-09T01:48:09.799Z,6.14
2018-05-09T01:48:22.369Z,6.14
2018-05-09T01:48:34.782Z,6.14
2018-05-09T01:48:47.211Z,6.14
2018-05-09T01:48:59.758Z,6.14
2018-05-09T01:49:12.262Z,6.14
2018-05-09T01:49:24.685Z,6.14
2018-05-09T01:49:37.116Z,6.14
2018-05-09T01:49:49.535Z,6.14
2018-05-09T01:50:01.956Z,6.14
2018-05-09T01:50:14.374Z,6.14
2018-05-09T01:50:26.814Z,6.14
2018-05-09T01:50:39.247Z,6.14
2018-05-09T01:50:51.688Z,6.14
2018-05-09T01:51:04.104Z,6.14
2018-05-09T01:51:16.587Z,6.14
2018-05-09T01:51:29.102Z,6.14
2018-05-09T01:51:41.515Z,6.14
2018-05-09T01:51:53.925Z,6.14
2018-05-09T01:52:06.400Z,6.14
2018-05-09T01:52:18.807Z,6.14
2018-05-09T01:52:31.234Z,6.14
2018-05-09T01:52:43.641Z,6.14
2018-05-09T01:52:56.042Z,6.14
2018-05-09T01:53:08.471Z,6.14
2018-05-09T01:53:20.895Z,6.14
2018-05-09T01:53:33.390Z,6.14
2018-05-09T01:53:45.820Z,6.14
2018-05-09T01:53:58.239Z,6.14
2018-05-09T01:54:10.680Z,6.14
2018-05-09T01:54:23.100Z,6.14
2018-05-09T01:54:35.504Z,6.14
2018-05-09T01:54:48.000Z,6.14
2018-05-09T01:55:01.384Z,6.14
2018-05-09T01:55:14.085Z,6.14
2018-05-09T01:55:26.490Z,6.14
2018-05-09T01:55:38.953Z,6.14
2018-05-09T01:55:51.362Z,6.14
2018-05-09T01:56:03.773Z,6.14
2018-05-09T01:56:16.203Z,6.14
2018-05-09T01:56:28.696Z,6.14
2018-05-09T01:56:41.116Z,6.14
2018-05-09T01:56:53.519Z,6.14
2018-05-09T01:57:05.996Z,5.22
2018-05-09T01:57:18.399Z,5.22
2018-05-09T01:57:30.810Z,5.22
2018-05-09T01:57:43.225Z,5.22
2018-05-09T01:57:55.633Z,5.22
2018-05-09T01:58:08.063Z,5.22
2018-05-09T01:58:20.464Z,5.22
2018-05-09T01:58:32.866Z,5.22
2018-05-09T01:58:45.287Z,5.22
2018-05-09T01:58:57.696Z,5.22
2018-05-09T01:59:10.109Z,5.22
2018-05-09T01:59:22.531Z,5.22
2018-05-09T01:59:35.088Z,5.22
2018-05-09T01:59:47.483Z,5.22
2018-05-09T01:59:59.905Z,5.22
2018-05-09T02:00:12.348Z,5.22
2018-05-09T02:00:24.787Z,5.22
2018-05-09T02:00:37.245Z,5.22
2018-05-09T02:00:49.741Z,5.22
2018-05-09T02:01:02.173Z,5.22
2018-05-09T02:01:14.610Z,5.22
2018-05-09T02:01:27.051Z,5.22
2018-05-09T02:01:39.465Z,5.22
2018-05-09T02:01:51.873Z,5.22
2018-05-09T02:02:04.291Z,5.22
2018-05-09T02:02:16.713Z,5.22
2018-05-09T02:02:29.137Z,5.22
2018-05-09T02:02:41.559Z,5.22
2018-05-09T02:02:54.000Z,5.22
2018-05-09T02:03:06.422Z,5.22
2018-05-09T02:03:18.867Z,5.22
2018-05-09T02:03:31.298Z,5.22
2018-05-09T02:03:43.732Z,5.22
2018-05-09T02:03:56.133Z,5.22
2018-05-09T02:04:08.557Z,5.22
2018-05-09T02:04:20.974Z,5.22
2018-05-09T02:04:33.558Z,5.22
2018-05-09T02:04:46.009Z,5.22
2018-05-09T02:04:58.419Z,5.22
2018-05-09T02:05:10.847Z,5.22
2018-05-09T02:05:23.271Z,5.22
2018-05-09T02:05:35.681Z,5.22
2018-05-09T02:05:48.095Z,5.22
2018-05-09T02:06:00.720Z,5.22
2018-05-09T02:06:14.199Z,5.22
2018-05-09T02:06:26.621Z,5.22
2018-05-09T02:06:39.020Z,5.22
2018-05-09T02:06:51.419Z,5.22
2018-05-09T02:07:03.898Z,5.22
2018-05-09T02:07:16.307Z,5.25
2018-05-09T02:07:28.731Z,5.25
2018-05-09T02:07:41.155Z,5.25
2018-05-09T02:07:53.597Z,5.25
2018-05-09T02:08:06.011Z,5.25
2018-05-09T02:08:18.444Z,5.25
2018-05-09T02:08:30.870Z,5.25
2018-05-09T02:08:43.276Z,5.25
2018-05-09T02:08:55.676Z,5.25
2018-05-09T02:09:08.096Z,5.25
2018-05-09T02:09:20.505Z,5.25
2018-05-09T02:09:32.949Z,5.25
2018-05-09T02:09:45.374Z,5.25
2018-05-09T02:09:57.799Z,5.25
2018-05-09T02:10:10.210Z,5.25
2018-05-09T02:10:22.632Z,5.25
2018-05-09T02:10:35.070Z,5.25
2018-05-09T02:10:47.479Z,5.25
2018-05-09T02:10:59.906Z,5.25
2018-05-09T02:11:12.338Z,5.25
2018-05-09T02:11:24.802Z,5.25
2018-05-09T02:11:37.290Z,5.25
2018-05-09T02:11:49.717Z,5.25
2018-05-09T02:12:02.130Z,5.25
2018-05-09T02:12:14.542Z,5.25
2018-05-09T02:12:26.970Z,5.25
2018-05-09T02:12:39.379Z,5.25
2018-05-09T02:12:51.802Z,5.25
2018-05-09T02:13:04.215Z,5.25
2018-05-09T02:13:16.621Z,5.25
2018-05-09T02:13:29.023Z,5.25
2018-05-09T02:13:41.428Z,5.25
2018-05-09T02:13:53.823Z,5.25
2018-05-09T02:14:06.232Z,5.25
2018-05-09T02:14:18.635Z,5.25
2018-05-09T02:14:31.133Z,5.25
2018-05-09T02:14:43.533Z,5.25
2018-05-09T02:14:55.931Z,5.25
2018-05-09T02:15:08.341Z,5.25
2018-05-09T02:15:20.756Z,5.25
2018-05-09T02:15:33.174Z,5.25
2018-05-09T02:15:45.594Z,5.25
2018-05-09T02:15:58.015Z,5.25
2018-05-09T02:16:10.433Z,5.25
2018-05-09T02:16:22.838Z,5.25
2018-05-09T02:16:35.354Z,5.25
2018-05-09T02:16:47.778Z,5.25
2018-05-09T02:17:00.202Z,5.25
2018-05-09T02:17:12.706Z,6.25
2018-05-09T02:17:25.260Z,6.25
2018-05-09T02:17:38.113Z,6.25
2018-05-09T02:17:51.270Z,6.25
2018-05-09T02:18:03.679Z,6.25
2018-05-09T02:18:16.100Z,6.25
2018-05-09T02:18:28.611Z,6.25
2018-05-09T02:18:41.045Z,6.25
2018-05-09T02:18:53.453Z,6.25
2018-05-09T02:19:05.876Z,6.25
2018-05-09T02:19:18.297Z,6.25
2018-05-09T02:19:30.720Z,6.25
2018-05-09T02:19:43.127Z,6.25
2018-05-09T02:19:55.537Z,6.25
2018-05-09T02:20:07.949Z,6.25
2018-05-09T02:20:20.356Z,6.25
2018-05-09T02:20:32.751Z,6.25
2018-05-09T02:20:45.225Z,6.25
2018-05-09T02:20:57.623Z,6.25
2018-05-09T02:21:10.091Z,6.25
2018-05-09T02:21:22.520Z,6.25
2018-05-09T02:21:34.924Z,6.25
2018-05-09T02:21:47.353Z,6.25
2018-05-09T02:21:59.765Z,6.25
2018-05-09T02:22:12.174Z,6.25
2018-05-09T02:22:24.588Z,6.25
2018-05-09T02:22:37.003Z,6.25
2018-05-09T02:22:49.420Z,6.25
2018-05-09T02:23:01.914Z,6.25
2018-05-09T02:23:14.330Z,6.25
2018-05-09T02:23:26.781Z,6.25
2018-05-09T02:23:39.264Z,6.25
2018-05-09T02:23:51.679Z,6.25
2018-05-09T02:24:04.622Z,6.25
2018-05-09T02:24:17.586Z,6.25
2018-05-09T02:24:30.034Z,6.25
2018-05-09T02:24:42.690Z,6.25
2018-05-09T02:24:55.104Z,6.25
2018-05-09T02:25:07.535Z,6.25
2018-05-09T02:25:19.963Z,6.25
2018-05-09T02:25:32.366Z,6.25
2018-05-09T02:25:44.773Z,6.25
2018-05-09T02:25:57.202Z,6.25
2018-05-09T02:26:09.609Z,6.25
2018-05-09T02:26:22.035Z,6.25
2018-05-09T02:26:34.443Z,6.25
2018-05-09T02:26:46.867Z,6.25
2018-05-09T02:26:59.285Z,6.25
2018-05-09T02:27:11.730Z,5.88
2018-05-09T02:27:24.148Z,5.88
2018-05-09T02:27:36.638Z,5.88
2018-05-09T02:27:49.055Z,5.88
2018-05-09T02:28:01.464Z,5.88
2018-05-09T02:28:13.893Z,5.88
2018-05-09T02:28:26.303Z,5.88
2018-05-09T02:28:38.728Z,5.88
2018-05-09T02:28:51.163Z,5.88
2018-05-09T02:29:03.593Z,5.88
2018-05-09T02:29:16.024Z,5.88
2018-05-09T02:29:28.441Z,5.88
2018-05-09T02:29:40.898Z,5.88
2018-05-09T02:29:53.311Z,5.88
2018-05-09T02:30:05.761Z,5.88
2018-05-09T02:30:18.210Z,5.88
2018-05-09T02:30:30.664Z,5.88
2018-05-09T02:30:43.095Z,5.88
2018-05-09T02:30:55.528Z,5.88
2018-05-09T02:31:08.380Z,5.88
2018-05-09T02:31:21.907Z,5.88
2018-05-09T02:31:34.351Z,5.88
2018-05-09T02:31:46.802Z,5.88
2018-05-09T02:31:59.232Z,5.88
2018-05-09T02:32:11.685Z,5.88
2018-05-09T02:32:24.127Z,5.88
2018-05-09T02:32:36.641Z,5.88
2018-05-09T02:32:49.087Z,5.88
2018-05-09T02:33:01.528Z,5.88
2018-05-09T02:33:13.975Z,5.88
2018-05-09T02:33:26.420Z,5.88
2018-05-09T02:33:38.848Z,5.88
2018-05-09T02:33:51.384Z,5.88
2018-05-09T02:34:03.860Z,5.88
2018-05-09T02:34:16.297Z,5.88
2018-05-09T02:34:28.740Z,5.88
2018-05-09T02:34:41.242Z,5.88
2018-05-09T02:34:53.728Z,5.88
2018-05-09T02:35:06.207Z,5.88
2018-05-09T02:35:18.653Z,5.88
2018-05-09T02:35:31.090Z,5.88
2018-05-09T02:35:43.616Z,5.88
2018-05-09T02:35:56.159Z,5.88
2018-05-09T02:36:08.606Z,5.88
2018-05-09T02:36:21.056Z,5.88
2018-05-09T02:36:33.500Z,5.88
2018-05-09T02:36:45.939Z,5.88
2018-05-09T02:36:58.367Z,5.88
2018-05-09T02:37:10.807Z,5.49
2018-05-09T02:37:23.233Z,5.49
2018-05-09T02:37:35.661Z,5.49
2018-05-09T02:37:48.084Z,5.49
2018-05-09T02:38:00.609Z,5.49
2018-05-09T02:38:13.153Z,5.49
2018-05-09T02:38:25.579Z,5.49
2018-05-09T02:38:37.995Z,5.49
2018-05-09T02:38:50.447Z,5.49
2018-05-09T02:39:02.872Z,5.49
2018-05-09T02:39:15.296Z,5.49
2018-05-09T02:39:27.740Z,5.49
2018-05-09T02:39:40.290Z,5.49
2018-05-09T02:39:52.714Z,5.49
2018-05-09T02:40:05.177Z,5.49
2018-05-09T02:40:17.636Z,5.49
2018-05-09T02:40:30.058Z,5.49
2018-05-09T02:40:42.526Z,5.49
2018-05-09T02:40:54.965Z,5.49
2018-05-09T02:41:07.495Z,5.49
2018-05-09T02:41:19.927Z,5.49
2018-05-09T02:41:32.356Z,5.49
2018-05-09T02:41:44.817Z,5.49
2018-05-09T02:41:57.260Z,5.49
2018-05-09T02:42:09.774Z,5.49
2018-05-09T02:42:22.221Z,5.49
2018-05-09T02:42:34.667Z,5.49
2018-05-09T02:42:47.113Z,5.49
2018-05-09T02:42:59.547Z,5.49
2018-05-09T02:43:11.958Z,5.49
2018-05-09T02:43:24.397Z,5.49
2018-05-09T02:43:37.113Z,5.49
2018-05-09T02:43:51.052Z,5.49
2018-05-09T02:44:03.473Z,5.49
2018-05-09T02:44:15.892Z,5.49
2018-05-09T02:44:28.316Z,5.49
2018-05-09T02:44:40.725Z,5.49
2018-05-09T02:44:53.166Z,5.49
2018-05-09T02:45:05.614Z,5.49
2018-05-09T02:45:18.040Z,5.49
2018-05-09T02:45:30.471Z,5.49
2018-05-09T02:45:42.908Z,5.49
2018-05-09T02:45:55.624Z,5.49
2018-05-09T02:46:08.047Z,5.49
2018-05-09T02:46:20.506Z,5.49
2018-05-09T02:46:32.938Z,5.49
2018-05-09T02:46:45.355Z,5.49
2018-05-09T02:46:57.780Z,5.49
2018-05-09T02:47:10.215Z,6.43
2018-05-09T02:47:22.651Z,6.43
2018-05-09T02:47:35.064Z,6.43
2018-05-09T02:47:47.492Z,6.43